createdAt,value
2017-10-04T00:00:00.504Z,0.00
2017-10-04T00:01:00.585Z,0.00
2017-10-04T00:02:00.514Z,0.00
2017-10-04T00:03:00.599Z,0.00
2017-10-04T00:04:00.528Z,0.00
2017-10-04T00:05:00.545Z,0.00
2017-10-04T00:06:00.616Z,0.00
2017-10-04T00:07:00.589Z,0.00
2017-10-04T00:08:00.571Z,0.00
2017-10-04T00:09:00.639Z,0.00
2017-10-04T00:10:00.594Z,0.00
2017-10-04T00:11:00.652Z,0.00
2017-10-04T00:12:00.608Z,0.00
2017-10-04T00:13:00.663Z,0.00
2017-10-04T00:14:00.633Z,0.00
2017-10-04T00:15:00.636Z,0.00
2017-10-04T00:16:00.681Z,0.00
2017-10-04T00:17:00.659Z,0.00
2017-10-04T00:18:00.696Z,0.00
2017-10-04T00:19:00.673Z,0.00
2017-10-04T00:20:00.688Z,0.00
2017-10-04T00:21:00.713Z,0.00
2017-10-04T00:22:00.703Z,0.00
2017-10-04T00:23:00.729Z,0.00
2017-10-04T00:24:00.720Z,0.00
2017-10-04T00:25:00.741Z,0.00
2017-10-04T00:26:00.748Z,0.00
2017-10-04T00:27:00.745Z,0.00
2017-10-04T00:28:00.760Z,0.00
2017-10-04T00:29:00.868Z,0.00
2017-10-04T00:30:00.773Z,0.00
2017-10-04T00:31:00.883Z,0.00
2017-10-04T00:32:00.793Z,0.00
2017-10-04T00:33:00.896Z,0.00
2017-10-04T00:34:00.811Z,0.00
2017-10-04T00:35:00.908Z,0.00
2017-10-04T00:36:00.829Z,0.00
2017-10-04T00:37:00.920Z,0.00
2017-10-04T00:38:00.855Z,0.00
2017-10-04T00:39:00.935Z,0.00
2017-10-04T00:40:00.873Z,0.00
2017-10-04T00:41:00.952Z,0.00
2017-10-04T00:42:00.886Z,0.00
2017-10-04T00:43:00.960Z,0.00
2017-10-04T00:44:00.902Z,0.00
2017-10-04T00:45:00.937Z,0.00
2017-10-04T00:46:00.922Z,0.00
2017-10-04T00:47:00.939Z,0.00
2017-10-04T00:48:00.954Z,0.00
2017-10-04T00:49:01.000Z,0.00
2017-10-04T00:50:00.965Z,0.00
2017-10-04T00:51:01.011Z,0.00
2017-10-04T00:52:00.978Z,0.00
2017-10-04T00:53:00.985Z,0.00
2017-10-04T00:54:00.994Z,0.00
2017-10-04T00:55:01.010Z,0.00
2017-10-04T00:56:01.044Z,0.00
2017-10-04T00:57:01.022Z,0.00
2017-10-04T00:58:01.062Z,0.00
2017-10-04T00:59:01.042Z,0.00
2017-10-04T01:00:01.055Z,0.00
2017-10-04T01:01:01.075Z,0.00
2017-10-04T01:02:01.066Z,0.00
2017-10-04T01:03:01.192Z,0.00
2017-10-04T01:04:01.098Z,0.00
2017-10-04T01:05:01.105Z,0.00
2017-10-04T01:06:01.209Z,0.00
2017-10-04T01:07:01.117Z,0.00
2017-10-04T01:08:01.132Z,0.00
2017-10-04T01:09:01.228Z,0.00
2017-10-04T01:10:01.148Z,0.00
2017-10-04T01:11:01.246Z,0.00
2017-10-04T01:12:01.170Z,0.00
2017-10-04T01:13:01.254Z,0.00
2017-10-04T01:14:01.183Z,0.00
2017-10-04T01:15:01.195Z,0.00
2017-10-04T01:16:01.273Z,0.00
2017-10-04T01:17:01.207Z,0.00
2017-10-04T01:18:01.287Z,0.00
2017-10-04T01:19:01.227Z,0.00
2017-10-04T01:20:01.241Z,0.00
2017-10-04T01:21:02.332Z,0.00
2017-10-04T01:22:01.259Z,0.00
2017-10-04T01:23:01.318Z,0.00
2017-10-04T01:24:01.280Z,0.00
2017-10-04T01:25:01.290Z,0.00
2017-10-04T01:26:01.336Z,0.00
2017-10-04T01:27:01.302Z,0.00
2017-10-04T01:28:01.315Z,0.00
2017-10-04T01:29:01.320Z,0.00
2017-10-04T01:30:01.328Z,0.00
2017-10-04T01:31:01.339Z,0.00
2017-10-04T01:32:01.345Z,0.00
2017-10-04T01:33:01.384Z,0.00
2017-10-04T01:34:01.363Z,0.00
2017-10-04T01:35:01.384Z,0.00
2017-10-04T01:36:01.404Z,0.00
2017-10-04T01:37:01.399Z,0.00
2017-10-04T01:38:01.416Z,0.00
2017-10-04T01:39:01.410Z,0.00
2017-10-04T01:40:01.427Z,0.00
2017-10-04T01:41:01.536Z,0.00
2017-10-04T01:42:01.438Z,0.00
2017-10-04T01:43:01.550Z,0.00
2017-10-04T01:44:01.456Z,0.00
2017-10-04T01:45:01.468Z,0.00
2017-10-04T01:46:01.569Z,0.00
2017-10-04T01:47:01.490Z,0.00
2017-10-04T01:48:01.583Z,0.00
2017-10-04T01:49:01.502Z,0.00
2017-10-04T01:50:01.514Z,0.00
2017-10-04T01:51:01.606Z,0.00
2017-10-04T01:52:01.530Z,0.00
2017-10-04T01:53:01.614Z,0.00
2017-10-04T01:54:01.549Z,0.00
2017-10-04T01:55:01.561Z,0.00
2017-10-04T01:56:02.658Z,0.00
2017-10-04T01:57:01.577Z,0.00
2017-10-04T01:58:01.583Z,0.00
2017-10-04T01:59:01.594Z,0.00
2017-10-04T02:00:01.607Z,0.00
2017-10-04T02:01:01.667Z,0.00
2017-10-04T02:02:01.631Z,0.00
2017-10-04T02:03:01.680Z,0.00
2017-10-04T02:04:01.647Z,0.00
2017-10-04T02:05:01.655Z,0.00
2017-10-04T02:06:01.700Z,0.00
2017-10-04T02:07:01.668Z,0.00
2017-10-04T02:08:01.713Z,0.00
2017-10-04T02:09:01.685Z,0.00
2017-10-04T02:10:01.699Z,0.00
2017-10-04T02:11:01.733Z,0.00
2017-10-04T02:12:01.715Z,0.00
2017-10-04T02:13:01.717Z,0.00
2017-10-04T02:14:01.732Z,0.00
2017-10-04T02:15:01.743Z,0.00
2017-10-04T02:16:01.764Z,0.00
2017-10-04T02:17:01.754Z,0.00
2017-10-04T02:18:01.882Z,0.00
2017-10-04T02:19:01.780Z,0.00
2017-10-04T02:20:01.893Z,0.00
2017-10-04T02:21:01.796Z,0.00
2017-10-04T02:22:01.906Z,0.00
2017-10-04T02:23:01.811Z,0.00
2017-10-04T02:24:01.822Z,0.00
2017-10-04T02:25:01.926Z,0.00
2017-10-04T02:26:01.837Z,0.00
2017-10-04T02:27:01.853Z,0.00
2017-10-04T02:28:01.944Z,0.00
2017-10-04T02:29:01.870Z,0.00
2017-10-04T02:30:01.881Z,0.00
2017-10-04T02:31:01.968Z,0.00
2017-10-04T02:32:01.893Z,0.00
2017-10-04T02:33:01.975Z,0.00
2017-10-04T02:34:01.915Z,0.00
2017-10-04T02:35:01.927Z,0.00
2017-10-04T02:36:01.994Z,0.00
2017-10-04T02:37:01.938Z,0.00
2017-10-04T02:38:02.009Z,0.00
2017-10-04T02:39:01.958Z,0.00
2017-10-04T02:40:01.970Z,0.00
2017-10-04T02:41:02.027Z,0.00
2017-10-04T02:42:01.984Z,0.00
2017-10-04T02:43:01.997Z,0.00
2017-10-04T02:44:02.003Z,0.00
2017-10-04T02:45:02.016Z,0.00
2017-10-04T02:46:02.061Z,0.00
2017-10-04T02:47:02.039Z,0.00
2017-10-04T02:48:02.092Z,0.00
2017-10-04T02:49:02.053Z,0.00
2017-10-04T02:50:02.063Z,0.00
2017-10-04T02:51:02.089Z,0.00
2017-10-04T02:52:02.086Z,0.00
2017-10-04T02:53:02.103Z,0.00
2017-10-04T02:54:02.098Z,0.00
2017-10-04T02:55:02.115Z,0.00
2017-10-04T02:56:02.113Z,0.00
2017-10-04T02:57:02.122Z,0.00
2017-10-04T02:58:02.237Z,0.00
2017-10-04T02:59:02.138Z,0.00
2017-10-04T03:00:02.148Z,0.00
2017-10-04T03:01:02.257Z,0.00
2017-10-04T03:02:02.166Z,0.00
2017-10-04T03:03:02.271Z,0.00
2017-10-04T03:04:02.184Z,0.00
2017-10-04T03:05:02.197Z,0.00
2017-10-04T03:06:02.288Z,0.00
2017-10-04T03:07:02.216Z,0.00
2017-10-04T03:08:02.302Z,0.00
2017-10-04T03:09:02.230Z,0.00
2017-10-04T03:10:02.315Z,0.00
2017-10-04T03:11:02.250Z,0.00
2017-10-04T03:12:02.329Z,0.00
2017-10-04T03:13:02.269Z,0.00
2017-10-04T03:14:02.273Z,0.00
2017-10-04T03:15:02.348Z,0.00
2017-10-04T03:16:02.295Z,0.00
2017-10-04T03:17:02.360Z,0.00
2017-10-04T03:18:02.318Z,0.00
2017-10-04T03:19:02.373Z,0.00
2017-10-04T03:20:02.343Z,0.00
2017-10-04T03:21:02.386Z,0.00
2017-10-04T03:22:02.352Z,0.00
2017-10-04T03:23:02.407Z,0.00
2017-10-04T03:24:02.370Z,0.00
2017-10-04T03:25:02.376Z,0.00
2017-10-04T03:26:02.380Z,0.00
2017-10-04T03:27:02.395Z,0.00
2017-10-04T03:28:02.433Z,0.00
2017-10-04T03:29:02.407Z,0.00
2017-10-04T03:30:02.424Z,0.00
2017-10-04T03:31:02.459Z,0.00
2017-10-04T03:32:02.434Z,0.00
2017-10-04T03:33:02.441Z,0.00
2017-10-04T03:34:02.451Z,0.00
2017-10-04T03:35:02.477Z,0.00
2017-10-04T03:36:02.483Z,0.00
2017-10-04T03:37:02.481Z,0.00
2017-10-04T03:38:02.596Z,0.00
2017-10-04T03:39:02.499Z,0.00
2017-10-04T03:40:02.513Z,0.00
2017-10-04T03:41:02.617Z,0.00
2017-10-04T03:42:02.529Z,0.00
2017-10-04T03:43:02.630Z,0.00
2017-10-04T03:44:02.549Z,0.00
2017-10-04T03:45:02.642Z,0.00
2017-10-04T03:46:02.562Z,0.00
2017-10-04T03:47:02.569Z,0.00
2017-10-04T03:48:03.688Z,0.00
2017-10-04T03:49:02.583Z,0.00
2017-10-04T03:50:02.608Z,0.00
2017-10-04T03:51:02.688Z,0.00
2017-10-04T03:52:02.611Z,0.00
2017-10-04T03:53:02.694Z,0.00
2017-10-04T03:54:02.635Z,0.00
2017-10-04T03:55:02.642Z,0.00
2017-10-04T03:56:02.714Z,0.00
2017-10-04T03:57:02.659Z,0.00
2017-10-04T03:58:02.728Z,0.00
2017-10-04T03:59:02.675Z,0.00
2017-10-04T04:00:02.688Z,0.00
2017-10-04T04:01:02.748Z,0.00
2017-10-04T04:02:02.701Z,0.00
2017-10-04T04:03:02.761Z,0.00
2017-10-04T04:04:02.725Z,0.00
2017-10-04T04:05:02.771Z,0.00
2017-10-04T04:06:02.738Z,0.00
2017-10-04T04:07:02.752Z,0.00
2017-10-04T04:08:02.794Z,0.00
2017-10-04T04:09:02.763Z,0.00
2017-10-04T04:10:02.776Z,0.00
2017-10-04T04:11:02.811Z,0.00
2017-10-04T04:12:02.790Z,0.00
2017-10-04T04:13:02.828Z,0.00
2017-10-04T04:14:02.808Z,0.00
2017-10-04T04:15:02.830Z,0.00
2017-10-04T04:16:02.888Z,0.00
2017-10-04T04:17:02.834Z,0.00
2017-10-04T04:18:02.902Z,0.00
2017-10-04T04:19:02.856Z,0.00
2017-10-04T04:20:02.865Z,0.00
2017-10-04T04:21:03.024Z,0.00
2017-10-04T04:22:02.877Z,0.00
2017-10-04T04:23:03.036Z,0.00
2017-10-04T04:24:02.896Z,0.00
2017-10-04T04:25:02.907Z,0.00
2017-10-04T04:26:03.059Z,0.00
2017-10-04T04:27:02.927Z,0.00
2017-10-04T04:28:03.071Z,0.00
2017-10-04T04:29:02.938Z,0.00
2017-10-04T04:30:02.952Z,0.00
2017-10-04T04:31:03.092Z,0.00
2017-10-04T04:32:02.967Z,0.00
2017-10-04T04:33:03.108Z,0.00
2017-10-04T04:34:02.984Z,0.00
2017-10-04T04:35:03.119Z,0.00
2017-10-04T04:36:03.000Z,0.00
2017-10-04T04:37:03.132Z,0.00
2017-10-04T04:38:03.016Z,0.00
2017-10-04T04:39:03.145Z,0.00
2017-10-04T04:40:03.047Z,0.00
2017-10-04T04:41:03.105Z,0.00
2017-10-04T04:42:03.056Z,0.00
2017-10-04T04:43:03.121Z,0.00
2017-10-04T04:44:03.075Z,0.00
2017-10-04T04:45:03.084Z,0.00
2017-10-04T04:46:03.139Z,0.00
2017-10-04T04:47:03.100Z,0.00
2017-10-04T04:48:03.152Z,0.00
2017-10-04T04:49:03.115Z,0.00
2017-10-04T04:50:03.131Z,0.00
2017-10-04T04:51:03.169Z,0.00
2017-10-04T04:52:04.056Z,0.00
2017-10-04T04:53:03.151Z,0.00
2017-10-04T04:54:03.163Z,0.00
2017-10-04T04:55:03.190Z,0.00
2017-10-04T04:56:03.264Z,0.00
2017-10-04T04:57:03.186Z,0.00
2017-10-04T04:58:03.216Z,0.00
2017-10-04T04:59:03.205Z,0.00
2017-10-04T05:00:03.228Z,0.00
2017-10-04T05:01:03.218Z,0.00
2017-10-04T05:02:03.302Z,0.00
2017-10-04T05:03:03.244Z,0.00
2017-10-04T05:04:03.417Z,0.00
2017-10-04T05:05:03.260Z,0.00
2017-10-04T05:06:03.429Z,0.00
2017-10-04T05:07:03.376Z,0.00
2017-10-04T05:08:03.390Z,0.00
2017-10-04T05:09:03.288Z,0.00
2017-10-04T05:10:03.395Z,0.00
2017-10-04T05:11:03.309Z,0.00
2017-10-04T05:12:03.413Z,0.00
2017-10-04T05:13:03.324Z,0.00
2017-10-04T05:14:03.422Z,0.00
2017-10-04T05:15:03.349Z,0.00
2017-10-04T05:16:03.436Z,0.00
2017-10-04T05:17:03.360Z,0.00
2017-10-04T05:18:03.446Z,4.00
2017-10-04T05:19:03.380Z,0.00
2017-10-04T05:20:03.393Z,4.00
2017-10-04T05:21:03.469Z,0.00
2017-10-04T05:22:03.406Z,4.00
2017-10-04T05:23:03.481Z,8.00
2017-10-04T05:24:03.421Z,8.00
2017-10-04T05:25:03.441Z,4.00
2017-10-04T05:26:03.499Z,8.00
2017-10-04T05:27:03.449Z,4.00
2017-10-04T05:28:03.521Z,8.00
2017-10-04T05:29:03.463Z,8.00
2017-10-04T05:30:03.481Z,12.00
2017-10-04T05:31:03.533Z,16.00
2017-10-04T05:32:03.494Z,20.00
2017-10-04T05:33:03.505Z,20.00
2017-10-04T05:34:03.622Z,24.00
2017-10-04T05:35:03.525Z,24.00
2017-10-04T05:36:03.639Z,24.00
2017-10-04T05:37:03.536Z,28.00
2017-10-04T05:38:03.651Z,32.00
2017-10-04T05:39:03.552Z,32.00
2017-10-04T05:40:03.663Z,36.00
2017-10-04T05:41:03.574Z,48.00
2017-10-04T05:42:03.582Z,64.00
2017-10-04T05:43:03.681Z,80.00
2017-10-04T05:44:03.597Z,92.00
2017-10-04T05:45:03.697Z,100.00
2017-10-04T05:46:03.611Z,112.00
2017-10-04T05:47:03.625Z,120.00
2017-10-04T05:48:03.629Z,128.00
2017-10-04T05:49:03.639Z,128.00
2017-10-04T05:50:03.652Z,132.00
2017-10-04T05:51:03.660Z,140.00
2017-10-04T05:52:03.666Z,152.00
2017-10-04T05:53:03.673Z,168.00
2017-10-04T05:54:03.686Z,184.00
2017-10-04T05:55:03.762Z,212.00
2017-10-04T05:56:03.700Z,228.00
2017-10-04T05:57:03.777Z,252.00
2017-10-04T05:58:03.715Z,260.00
2017-10-04T05:59:03.726Z,264.00
2017-10-04T06:00:03.804Z,284.00
2017-10-04T06:01:03.742Z,308.00
2017-10-04T06:02:03.810Z,340.00
2017-10-04T06:03:03.764Z,364.00
2017-10-04T06:04:03.822Z,376.00
2017-10-04T06:05:03.778Z,388.00
2017-10-04T06:06:03.837Z,404.00
2017-10-04T06:07:03.795Z,416.00
2017-10-04T06:08:03.852Z,432.00
2017-10-04T06:09:03.814Z,452.00
2017-10-04T06:10:03.865Z,472.00
2017-10-04T06:11:03.830Z,500.00
2017-10-04T06:12:03.838Z,536.00
2017-10-04T06:13:03.843Z,576.00
2017-10-04T06:14:03.906Z,612.00
2017-10-04T06:15:03.864Z,652.00
2017-10-04T06:16:03.910Z,688.00
2017-10-04T06:17:03.881Z,712.00
2017-10-04T06:18:03.918Z,724.00
2017-10-04T06:19:03.897Z,720.00
2017-10-04T06:20:03.930Z,720.00
2017-10-04T06:21:03.916Z,712.00
2017-10-04T06:22:05.992Z,700.00
2017-10-04T06:23:03.937Z,696.00
2017-10-04T06:24:03.963Z,692.00
2017-10-04T06:25:03.949Z,688.00
2017-10-04T06:26:04.079Z,692.00
2017-10-04T06:27:03.967Z,712.00
2017-10-04T06:28:03.983Z,728.00
2017-10-04T06:29:03.979Z,740.00
2017-10-04T06:30:04.014Z,756.00
2017-10-04T06:31:04.121Z,800.00
2017-10-04T06:32:04.011Z,856.00
2017-10-04T06:33:04.125Z,900.00
2017-10-04T06:34:04.022Z,968.00
2017-10-04T06:35:04.136Z,996.00
2017-10-04T06:36:04.047Z,972.00
2017-10-04T06:37:04.151Z,960.00
2017-10-04T06:38:04.059Z,964.00
2017-10-04T06:39:04.170Z,960.00
2017-10-04T06:40:04.079Z,972.00
2017-10-04T06:41:04.178Z,992.00
2017-10-04T06:42:04.095Z,1008.00
2017-10-04T06:43:04.195Z,1000.00
2017-10-04T06:44:04.110Z,988.00
2017-10-04T06:45:04.208Z,972.00
2017-10-04T06:46:04.129Z,976.00
2017-10-04T06:47:04.240Z,992.00
2017-10-04T06:48:04.150Z,1012.00
2017-10-04T06:49:04.253Z,1048.00
2017-10-04T06:50:04.178Z,1116.00
2017-10-04T06:51:04.268Z,1180.00
2017-10-04T06:52:04.182Z,1224.00
2017-10-04T06:53:04.282Z,1264.00
2017-10-04T06:54:04.197Z,1280.00
2017-10-04T06:55:04.293Z,1264.00
2017-10-04T06:56:04.217Z,1196.00
2017-10-04T06:57:04.227Z,1120.00
2017-10-04T06:58:05.340Z,1096.00
2017-10-04T06:59:04.241Z,1092.00
2017-10-04T07:00:04.331Z,1132.00
2017-10-04T07:01:04.306Z,1208.00
2017-10-04T07:02:04.338Z,1280.00
2017-10-04T07:03:04.274Z,1284.00
2017-10-04T07:04:04.354Z,1272.00
2017-10-04T07:05:04.290Z,1272.00
2017-10-04T07:06:04.308Z,1264.00
2017-10-04T07:07:04.404Z,1232.00
2017-10-04T07:08:04.319Z,1192.00
2017-10-04T07:09:04.417Z,1156.00
2017-10-04T07:10:04.336Z,1136.00
2017-10-04T07:11:04.430Z,1116.00
2017-10-04T07:12:04.351Z,1044.00
2017-10-04T07:13:04.362Z,1032.00
2017-10-04T07:14:05.475Z,1008.00
2017-10-04T07:15:04.380Z,984.00
2017-10-04T07:16:04.473Z,980.00
2017-10-04T07:17:04.394Z,1016.00
2017-10-04T07:18:04.481Z,1020.00
2017-10-04T07:19:04.412Z,1024.00
2017-10-04T07:20:04.505Z,1116.00
2017-10-04T07:21:04.430Z,1200.00
2017-10-04T07:22:04.510Z,1304.00
2017-10-04T07:23:04.446Z,1376.00
2017-10-04T07:24:04.625Z,1368.00
2017-10-04T07:25:04.462Z,1388.00
2017-10-04T07:26:04.471Z,1384.00
2017-10-04T07:27:04.643Z,1388.00
2017-10-04T07:28:04.490Z,1408.00
2017-10-04T07:29:04.661Z,1480.00
2017-10-04T07:30:04.507Z,1572.00
2017-10-04T07:31:04.512Z,1664.00
2017-10-04T07:32:04.677Z,1744.00
2017-10-04T07:33:04.530Z,1744.00
2017-10-04T07:34:04.689Z,1676.00
2017-10-04T07:35:04.557Z,1604.00
2017-10-04T07:36:04.704Z,1564.00
2017-10-04T07:37:04.568Z,1552.00
2017-10-04T07:38:04.717Z,1548.00
2017-10-04T07:39:04.583Z,1540.00
2017-10-04T07:40:04.589Z,1528.00
2017-10-04T07:41:04.737Z,1520.00
2017-10-04T07:42:04.605Z,1516.00
2017-10-04T07:43:04.751Z,1504.00
2017-10-04T07:44:04.622Z,1460.00
2017-10-04T07:45:04.764Z,1392.00
2017-10-04T07:46:04.644Z,1336.00
2017-10-04T07:47:04.650Z,1320.00
2017-10-04T07:48:04.660Z,1356.00
2017-10-04T07:49:04.668Z,1436.00
2017-10-04T07:50:04.800Z,1524.00
2017-10-04T07:51:04.684Z,1584.00
2017-10-04T07:52:04.813Z,1608.00
2017-10-04T07:53:04.702Z,1620.00
2017-10-04T07:54:04.707Z,1612.00
2017-10-04T07:55:04.834Z,1604.00
2017-10-04T07:56:04.727Z,1608.00
2017-10-04T07:57:04.845Z,1616.00
2017-10-04T07:58:04.748Z,1600.00
2017-10-04T07:59:04.857Z,1600.00
2017-10-04T08:00:04.761Z,1648.00
2017-10-04T08:01:04.875Z,1752.00
2017-10-04T08:02:04.781Z,1876.00
2017-10-04T08:03:04.887Z,1960.00
2017-10-04T08:04:04.799Z,1968.00
2017-10-04T08:05:04.897Z,1900.00
2017-10-04T08:06:04.813Z,1824.00
2017-10-04T08:07:04.916Z,1776.00
2017-10-04T08:08:04.833Z,1744.00
2017-10-04T08:09:04.929Z,1720.00
2017-10-04T08:10:04.849Z,1696.00
2017-10-04T08:11:04.940Z,1676.00
2017-10-04T08:12:04.864Z,1668.00
2017-10-04T08:13:05.058Z,1700.00
2017-10-04T08:14:04.885Z,1760.00
2017-10-04T08:15:05.069Z,1808.00
2017-10-04T08:16:04.901Z,1840.00
2017-10-04T08:17:09.795Z,1840.00
2017-10-04T08:18:04.913Z,1832.00
2017-10-04T08:19:05.098Z,1884.00
2017-10-04T08:20:04.934Z,2004.00
2017-10-04T08:21:05.110Z,2132.00
2017-10-04T08:22:05.611Z,2188.00
2017-10-04T08:23:04.964Z,2128.00
2017-10-04T08:24:05.132Z,1984.00
2017-10-04T08:25:04.977Z,1880.00
2017-10-04T08:26:05.145Z,1844.00
2017-10-04T08:27:04.996Z,1868.00
2017-10-04T08:28:05.161Z,1896.00
2017-10-04T08:29:05.009Z,1812.00
2017-10-04T08:30:05.172Z,1680.00
2017-10-04T08:31:05.032Z,1488.00
2017-10-04T08:32:05.225Z,1328.00
2017-10-04T08:33:05.046Z,1276.00
2017-10-04T08:34:05.201Z,1260.00
2017-10-04T08:35:05.062Z,1220.00
2017-10-04T08:36:05.218Z,1192.00
2017-10-04T08:37:05.077Z,1236.00
2017-10-04T08:38:05.225Z,1296.00
2017-10-04T08:39:05.094Z,1508.00
2017-10-04T08:40:05.262Z,1696.00
2017-10-04T08:41:05.112Z,1924.00
2017-10-04T08:42:05.255Z,2212.00
2017-10-04T08:43:05.131Z,2360.00
2017-10-04T08:44:05.280Z,2612.00
2017-10-04T08:45:05.146Z,2880.00
2017-10-04T08:46:05.282Z,2556.00
2017-10-04T08:47:05.165Z,1964.00
2017-10-04T08:48:05.296Z,1728.00
2017-10-04T08:49:05.193Z,1996.00
2017-10-04T08:50:05.186Z,2476.00
2017-10-04T08:51:05.196Z,2864.00
2017-10-04T08:52:05.320Z,2752.00
2017-10-04T08:53:05.213Z,2952.00
2017-10-04T08:54:05.333Z,2980.00
2017-10-04T08:55:05.228Z,2876.00
2017-10-04T08:56:05.346Z,2844.00
2017-10-04T08:57:05.254Z,2804.00
2017-10-04T08:58:05.360Z,2820.00
2017-10-04T08:59:05.262Z,2932.00
2017-10-04T09:00:05.274Z,3124.00
2017-10-04T09:01:05.483Z,3292.00
2017-10-04T09:02:05.291Z,3144.00
2017-10-04T09:03:05.500Z,2972.00
2017-10-04T09:04:05.312Z,2956.00
2017-10-04T09:05:05.511Z,3356.00
2017-10-04T09:06:05.327Z,3256.00
2017-10-04T09:07:05.428Z,2936.00
2017-10-04T09:08:05.346Z,3028.00
2017-10-04T09:09:05.539Z,3196.00
2017-10-04T09:10:05.361Z,2956.00
2017-10-04T09:11:05.557Z,2388.00
2017-10-04T09:12:05.382Z,2080.00
2017-10-04T09:13:05.565Z,1968.00
2017-10-04T09:14:05.396Z,1992.00
2017-10-04T09:15:05.578Z,2280.00
2017-10-04T09:16:05.416Z,1952.00
2017-10-04T09:17:05.591Z,1596.00
2017-10-04T09:18:05.429Z,1776.00
2017-10-04T09:19:05.438Z,1948.00
2017-10-04T09:20:05.448Z,1424.00
2017-10-04T09:21:05.623Z,1484.00
2017-10-04T09:22:05.462Z,1388.00
2017-10-04T09:23:05.635Z,1124.00
2017-10-04T09:24:05.483Z,852.00
2017-10-04T09:25:05.649Z,892.00
2017-10-04T09:26:05.498Z,952.00
2017-10-04T09:27:05.508Z,1124.00
2017-10-04T09:28:05.516Z,1388.00
2017-10-04T09:29:05.678Z,1912.00
2017-10-04T09:30:05.541Z,1956.00
2017-10-04T09:31:05.689Z,1700.00
2017-10-04T09:32:05.554Z,1548.00
2017-10-04T09:33:05.704Z,1748.00
2017-10-04T09:34:05.572Z,1692.00
2017-10-04T09:35:05.717Z,1568.00
2017-10-04T09:36:05.586Z,2024.00
2017-10-04T09:37:05.635Z,2112.00
2017-10-04T09:38:05.615Z,2284.00
2017-10-04T09:39:05.614Z,2540.00
2017-10-04T09:40:05.619Z,2348.00
2017-10-04T09:41:05.629Z,2024.00
2017-10-04T09:42:05.639Z,2240.00
2017-10-04T09:43:05.648Z,2372.00
2017-10-04T09:44:05.655Z,2356.00
2017-10-04T09:45:05.666Z,1992.00
2017-10-04T09:46:05.675Z,1596.00
2017-10-04T09:47:05.693Z,1676.00
2017-10-04T09:48:05.690Z,1648.00
2017-10-04T09:49:05.808Z,2016.00
2017-10-04T09:50:05.708Z,2132.00
2017-10-04T09:51:05.821Z,2240.00
2017-10-04T09:52:05.726Z,2520.00
2017-10-04T09:53:05.836Z,2556.00
2017-10-04T09:54:05.741Z,2668.00
2017-10-04T09:55:05.851Z,2744.00
2017-10-04T09:56:05.760Z,2788.00
2017-10-04T09:57:05.865Z,2716.00
2017-10-04T09:58:05.779Z,2616.00
2017-10-04T09:59:05.884Z,2512.00
2017-10-04T10:00:05.793Z,2492.00
2017-10-04T10:01:05.894Z,2436.00
2017-10-04T10:02:05.812Z,2320.00
2017-10-04T10:03:05.913Z,2056.00
2017-10-04T10:04:05.829Z,2324.00
2017-10-04T10:05:05.919Z,2364.00
2017-10-04T10:06:05.847Z,2312.00
2017-10-04T10:07:05.856Z,2236.00
2017-10-04T10:08:05.944Z,2172.00
2017-10-04T10:09:05.870Z,2128.00
2017-10-04T10:10:05.952Z,2116.00
2017-10-04T10:11:05.891Z,2096.00
2017-10-04T10:12:05.966Z,2136.00
2017-10-04T10:13:05.905Z,2164.00
2017-10-04T10:14:05.990Z,2224.00
2017-10-04T10:15:05.923Z,2152.00
2017-10-04T10:16:05.994Z,2152.00
2017-10-04T10:17:05.945Z,2140.00
2017-10-04T10:18:06.009Z,2016.00
2017-10-04T10:19:05.959Z,2052.00
2017-10-04T10:20:06.024Z,2292.00
2017-10-04T10:21:05.971Z,2544.00
2017-10-04T10:22:05.985Z,2776.00
2017-10-04T10:23:05.994Z,2800.00
2017-10-04T10:24:06.005Z,2760.00
2017-10-04T10:25:06.011Z,2736.00
2017-10-04T10:26:06.021Z,2716.00
2017-10-04T10:27:06.033Z,2564.00
2017-10-04T10:28:06.040Z,2604.00
2017-10-04T10:29:06.047Z,2776.00
2017-10-04T10:30:07.112Z,3028.00
2017-10-04T10:31:06.062Z,3180.00
2017-10-04T10:32:06.101Z,3312.00
2017-10-04T10:33:06.079Z,3312.00
2017-10-04T10:34:06.092Z,3376.00
2017-10-04T10:35:06.100Z,3388.00
2017-10-04T10:36:06.112Z,3220.00
2017-10-04T10:37:06.116Z,3056.00
2017-10-04T10:38:06.124Z,2536.00
2017-10-04T10:39:06.131Z,2468.00
2017-10-04T10:40:06.140Z,2500.00
2017-10-04T10:41:06.153Z,2564.00
2017-10-04T10:42:06.159Z,2796.00
2017-10-04T10:43:06.282Z,2924.00
2017-10-04T10:44:06.173Z,2876.00
2017-10-04T10:45:06.296Z,2836.00
2017-10-04T10:46:06.195Z,2708.00
2017-10-04T10:47:06.304Z,2572.00
2017-10-04T10:48:06.219Z,2540.00
2017-10-04T10:49:06.222Z,2604.00
2017-10-04T10:50:06.328Z,2596.00
2017-10-04T10:51:06.238Z,2608.00
2017-10-04T10:52:06.342Z,2896.00
2017-10-04T10:53:06.252Z,2880.00
2017-10-04T10:54:06.355Z,2688.00
2017-10-04T10:55:06.269Z,2720.00
2017-10-04T10:56:06.283Z,2612.00
2017-10-04T10:57:06.312Z,2592.00
2017-10-04T10:58:06.300Z,2792.00
2017-10-04T10:59:06.311Z,2820.00
2017-10-04T11:00:06.321Z,2552.00
2017-10-04T11:01:06.328Z,2424.00
2017-10-04T11:02:06.336Z,2908.00
2017-10-04T11:03:06.347Z,2920.00
2017-10-04T11:04:06.359Z,2464.00
2017-10-04T11:05:06.429Z,1808.00
2017-10-04T11:06:06.369Z,1780.00
2017-10-04T11:07:06.376Z,1832.00
2017-10-04T11:08:06.387Z,2076.00
2017-10-04T11:09:06.401Z,2636.00
2017-10-04T11:10:06.404Z,2912.00
2017-10-04T11:11:06.414Z,3028.00
2017-10-04T11:12:06.423Z,2928.00
2017-10-04T11:13:06.429Z,2752.00
2017-10-04T11:14:06.441Z,2208.00
2017-10-04T11:15:06.455Z,2572.00
2017-10-04T11:16:07.533Z,2840.00
2017-10-04T11:17:06.467Z,2840.00
2017-10-04T11:18:06.480Z,2716.00
2017-10-04T11:19:06.490Z,2740.00
2017-10-04T11:20:06.531Z,2684.00
2017-10-04T11:21:06.504Z,2900.00
2017-10-04T11:22:06.545Z,3352.00
2017-10-04T11:23:06.521Z,3420.00
2017-10-04T11:24:06.557Z,3092.00
2017-10-04T11:25:06.539Z,3172.00
2017-10-04T11:26:06.572Z,3352.00
2017-10-04T11:27:06.556Z,3156.00
2017-10-04T11:28:06.585Z,2348.00
2017-10-04T11:29:06.578Z,2272.00
2017-10-04T11:30:06.619Z,2068.00
2017-10-04T11:31:06.603Z,3116.00
2017-10-04T11:32:06.602Z,3484.00
2017-10-04T11:33:06.611Z,3576.00
2017-10-04T11:34:06.623Z,3376.00
2017-10-04T11:35:06.629Z,3408.00
2017-10-04T11:36:06.640Z,3456.00
2017-10-04T11:37:06.645Z,3428.00
2017-10-04T11:38:06.655Z,3432.00
2017-10-04T11:39:06.666Z,3420.00
2017-10-04T11:40:06.671Z,3424.00
2017-10-04T11:41:06.682Z,3436.00
2017-10-04T11:42:06.697Z,3436.00
2017-10-04T11:43:06.702Z,3452.00
2017-10-04T11:44:06.710Z,3288.00
2017-10-04T11:45:06.720Z,3380.00
2017-10-04T11:46:06.730Z,3412.00
2017-10-04T11:47:06.736Z,3384.00
2017-10-04T11:48:06.742Z,3360.00
2017-10-04T11:49:06.778Z,3316.00
2017-10-04T11:50:06.762Z,3196.00
2017-10-04T11:51:06.837Z,3132.00
2017-10-04T11:52:06.784Z,3060.00
2017-10-04T11:53:06.791Z,2832.00
2017-10-04T11:54:06.859Z,2564.00
2017-10-04T11:55:06.807Z,2260.00
2017-10-04T11:56:06.821Z,2408.00
2017-10-04T11:57:06.849Z,2560.00
2017-10-04T11:58:06.837Z,1944.00
2017-10-04T11:59:06.853Z,2428.00
2017-10-04T12:00:06.852Z,2404.00
2017-10-04T12:01:06.863Z,2444.00
2017-10-04T12:02:06.871Z,2264.00
2017-10-04T12:03:06.879Z,2616.00
2017-10-04T12:04:06.926Z,2664.00
2017-10-04T12:05:06.896Z,2676.00
2017-10-04T12:06:06.939Z,2564.00
2017-10-04T12:07:06.914Z,2112.00
2017-10-04T12:08:06.951Z,1668.00
2017-10-04T12:09:06.934Z,1644.00
2017-10-04T12:10:06.966Z,1608.00
2017-10-04T12:11:06.951Z,1748.00
2017-10-04T12:12:06.962Z,1816.00
2017-10-04T12:13:06.969Z,1716.00
2017-10-04T12:14:06.978Z,1304.00
2017-10-04T12:15:06.992Z,1192.00
2017-10-04T12:16:06.997Z,1384.00
2017-10-04T12:17:07.005Z,1448.00
2017-10-04T12:18:07.020Z,1360.00
2017-10-04T12:19:07.023Z,1376.00
2017-10-04T12:20:07.032Z,1216.00
2017-10-04T12:21:07.108Z,1688.00
2017-10-04T12:22:07.055Z,1308.00
2017-10-04T12:23:07.114Z,1372.00
2017-10-04T12:24:07.069Z,1288.00
2017-10-04T12:25:07.132Z,1416.00
2017-10-04T12:26:07.087Z,1476.00
2017-10-04T12:27:07.100Z,1456.00
2017-10-04T12:28:07.107Z,1572.00
2017-10-04T12:29:07.154Z,1508.00
2017-10-04T12:30:07.128Z,1848.00
2017-10-04T12:31:07.169Z,1840.00
2017-10-04T12:32:07.138Z,1852.00
2017-10-04T12:33:07.184Z,1680.00
2017-10-04T12:34:07.159Z,1460.00
2017-10-04T12:35:07.197Z,1580.00
2017-10-04T12:36:07.175Z,1504.00
2017-10-04T12:37:07.213Z,1828.00
2017-10-04T12:38:07.198Z,1924.00